Ralph, Alabama
Current Conditions -  °F | °C
As of 2:53 PM on Thursday 27 Nov 2014 (Local Time) from KTCL Reporting Station
Broken Clouds Broken Clouds  
Wind Chill: 41°   Ceiling: 4100
Heat Index: 47°   Visibility: 10mi
Dew Point: 29°   Wind: 13mph
Humidity: 50%   Direction: 320°NW
Pressure: 30.43"   Gusts: NA
Location:  33.04°N, 87.77°W
Report Text: KTCL 272053Z 32011KT 10SM BKN041 08/M02 A3043 RMK AO2 SLP305 T00831017 55000
Loading
Personal Weather Stations






























Interactive Weather Map New forecast layout! Learn more

10-Day Weather Forecast

Advertisements
Track Severe Weather on mobile